Latest Weather Observations for Hobart

IDT60801

Issued at 1:02 pm EST Tuesday 23 May 2017 (issued every 30 minutes, with the page automatically refreshed every 10 minutes)

About weather observations | Map of weather stations | Latest weather observations for TAS | Other Formats
Station Details ID: 094029 Name: HOBART (ELLERSLIE ROAD) Lat: -42.89 Lon: 147.33 Height: 50.5 m
Data from the previous 72 hours. | See also: Recent months at Hobart
Date/Time
EST
Temp
°C
App
Temp
°C
Dew
Point
°C
Rel
Hum
%
Delta-T
°C
Wind Press
QNH
hPa
Press
MSL
hPa
Rain since
9am
mm
Dir  Spd
km/h
Gust
km/h
Spd
kts
Gust
kts
23/01:00pm 17.0 16.4 11.7 71 2.9 NNW 6 13 3 7 1011.8 1011.8 0.2
23/12:30pm 15.6 14.0 11.5 76 2.2 NNW 11 17 6 9 1012.3 1012.3 0.2
23/12:00pm 16.6 16.8 10.6 67 3.2 CALM 0 0 0 0 1012.7 1012.7 0.0
23/11:30am 16.7 15.6 9.9 64 3.6 ENE 6 9 3 5 1013.3 1013.3 0.0
23/11:00am 16.8 16.0 9.8 63 3.7 NNW 4 11 2 6 1013.7 1013.7 0.0
23/10:30am 15.6 15.2 9.9 69 3.0 SSE 2 7 1 4 1014.0 1014.0 0.0
23/10:00am 15.5 15.0 9.5 67 3.1 WSW 2 6 1 3 1014.2 1014.2 0.0
23/09:30am 14.2 12.9 9.1 71 2.6 WSW 6 7 3 4 1014.2 1014.2 0.0
23/09:00am 14.2 12.7 8.4 68 2.9 N 6 9 3 5 1014.3 1014.3 0.0
23/08:30am 13.5 12.7 8.3 71 2.6 N 2 7 1 4 1014.2 1014.2 0.0
23/08:00am 13.6 12.0 8.2 70 2.7 NNE 6 9 3 5 1014.0 1014.0 0.0
23/07:30am 13.2 11.6 7.9 70 2.6 WNW 6 9 3 5 1014.2 1014.2 0.0
23/07:00am 12.8 10.2 7.9 72 2.4 NW 11 15 6 8 1014.4 1014.4 0.0
23/06:30am 12.3 11.4 9.1 81 1.6 WNW 4 9 2 5 1014.3 1014.3 0.0
23/06:00am 12.3 10.9 8.7 79 1.8 NNW 6 9 3 5 1014.3 1014.3 0.0
23/05:30am 13.3 10.9 8.5 72 2.4 NNW 11 17 6 9 1014.3 1014.3 0.0
23/05:00am 13.2 10.4 8.6 73 2.3 NNW 13 17 7 9 1014.6 1014.6 0.0
23/04:30am 13.4 10.7 8.8 74 2.3 NNW 13 17 7 9 1014.6 1014.6 0.0
23/04:00am 14.0 10.8 8.6 70 2.7 NW 15 20 8 11 1014.7 1014.7 0.0
23/03:30am 14.0 10.1 8.6 70 2.7 NW 19 28 10 15 1014.8 1014.8 0.0
23/03:00am 13.8 9.8 8.9 72 2.5 NNW 20 28 11 15 1014.7 1014.7 0.0
23/02:30am 13.4 9.3 8.8 74 2.3 NNW 20 28 11 15 1015.0 1015.0 0.0
23/02:00am 13.4 9.3 8.6 73 2.4 NNW 20 26 11 14 1015.2 1015.2 0.0
23/01:30am 13.4 8.9 8.4 72 2.5 NNW 22 32 12 17 1015.4 1015.4 0.0
23/01:00am 13.5 9.9 8.3 71 2.6 NNW 17 24 9 13 1015.7 1015.7 0.0
23/12:30am 13.4 10.9 8.4 72 2.5 N 11 17 6 9 1016.1 1016.1 0.0
23/12:00am 12.8 10.3 8.2 73 2.3 NNW 11 17 6 9 1016.3 1016.3 0.0
 
Date/Time
EST
Temp
°C
App
Temp
°C
Dew
Point
°C
Rel
Hum
%
Delta-T
°C
Wind Press
QNH
hPa
Press
MSL
hPa
Rain since
9am
mm
Dir  Spd
km/h
Gust
km/h
Spd
kts
Gust
kts
22/11:30pm 12.5 10.8 8.3 75 2.1 NW 7 13 4 7 1016.5 1016.5 0.0
22/11:00pm 12.4 11.7 8.4 76 2.0 NNE 2 9 1 5 1016.3 1016.3 0.0
22/10:30pm 12.5 10.4 8.3 75 2.1 NW 9 9 5 5 1016.8 1016.8 0.0
22/10:00pm 12.8 12.4 8.1 73 2.3 CALM 0 0 0 0 1017.1 1017.1 0.0
22/09:30pm 12.4 12.0 8.4 76 2.0 CALM 0 4 0 2 1017.0 1017.0 0.0
22/09:00pm 12.3 11.3 8.9 80 1.7 NE 4 9 2 5 1017.1 1017.1 0.0
22/08:30pm 12.4 10.4 8.6 77 1.9 WNW 9 11 5 6 1017.1 1017.1 0.0
22/08:00pm 12.8 11.4 8.8 76 2.0 WNW 6 9 3 5 1017.0 1017.0 0.0
22/07:30pm 13.3 11.8 9.2 76 2.1 WNW 7 9 4 5 1017.0 1017.0 0.0
22/07:00pm 14.7 11.8 9.5 71 2.7 NW 15 19 8 10 1016.9 1016.9 0.0
22/06:30pm 13.7 12.8 9.4 75 2.2 WNW 4 7 2 4 1016.8 1016.8 0.0
22/06:00pm 13.9 12.1 9.6 75 2.2 WSW 9 11 5 6 1016.6 1016.6 0.0
22/05:30pm 14.8 14.4 9.8 72 2.6 NW 2 9 1 5 1016.4 1016.4 0.0
22/05:00pm 15.4 15.1 10.0 70 2.8 WSW 2 9 1 5 1016.1 1016.1 0.0
22/04:30pm 17.2 16.9 10.0 62 3.8 NW 2 9 1 5 1016.0 1016.0 0.0
22/04:00pm 19.0 16.6 8.6 51 5.4 NW 11 15 6 8 1016.1 1016.1 0.0
22/03:30pm 19.5 15.9 8.3 48 5.8 NW 17 28 9 15 1016.1 1016.1 0.0
22/03:00pm 20.3 16.2 7.7 44 6.5 NW 19 30 10 16 1016.2 1016.2 0.0
22/02:30pm 20.4 16.3 7.8 44 6.5 NW 19 32 10 17 1016.4 1016.4 0.0
22/02:00pm 20.3 16.8 8.7 47 6.1 NW 17 28 9 15 1016.5 1016.5 0.0
22/01:30pm 20.1 16.1 8.9 48 5.9 NW 20 30 11 16 1016.7 1016.7 0.0
22/01:00pm 19.5 15.4 8.8 50 5.6 NNW 20 30 11 16 1016.8 1016.8 0.0
22/12:30pm 19.3 14.4 8.5 49 5.6 NNW 24 33 13 18 1016.8 1016.8 0.0
22/12:00pm 18.8 14.4 8.8 52 5.2 NNW 22 32 12 17 1017.1 1017.1 0.0
22/11:30am 17.8 12.1 8.5 54 4.8 NNW 28 35 15 19 1017.5 1017.5 0.0
22/11:00am 17.2 12.3 8.4 56 4.5 NNW 24 35 13 19 1017.9 1017.9 0.0
22/10:30am 16.3 10.2 8.4 59 4.0 NNW 30 39 16 21 1018.1 1018.1 0.0
22/10:00am 16.0 10.3 8.3 60 3.9 NW 28 37 15 20 1018.3 1018.3 0.0
22/09:30am 15.0 9.3 8.2 64 3.4 NW 28 39 15 21 1018.4 1018.5 0.0
22/09:00am 12.8 6.7 8.4 74 2.2 NW 30 37 16 20 1018.3 1018.3 0.2
22/08:30am 12.0 6.7 8.4 78 1.8 NW 26 32 14 17 1018.7 1018.8 0.2
22/08:00am 12.1 7.5 8.2 77 1.9 NW 22 33 12 18 1018.3 1018.3 0.2
22/07:30am 11.2 5.4 8.1 81 1.5 NW 28 35 15 19 1018.2 1018.2 0.2
22/07:00am 11.0 5.4 8.6 85 1.2 NW 28 37 15 20 1017.8 1017.8 0.2
22/06:30am 11.3 5.6 8.5 83 1.4 NW 28 35 15 19 1017.5 1017.5 0.2
22/06:00am 10.9 7.8 8.7 86 1.1 WNW 15 22 8 12 1017.6 1017.6 0.2
22/05:30am 10.5 7.7 8.7 89 0.9 NW 13 24 7 13 1017.5 1017.5 0.2
22/05:00am 9.7 7.7 8.5 92 0.6 W 9 17 5 9 1017.5 1017.5 0.2
22/04:30am 9.8 8.2 8.6 92 0.6 NW 7 11 4 6 1017.4 1017.4 0.2
22/04:00am 10.1 8.7 8.9 92 0.6 WNW 6 11 3 6 1017.3 1017.3 0.2
22/03:30am 10.4 9.0 9.0 91 0.7 WNW 6 11 3 6 1017.3 1017.3 0.2
22/03:00am 10.8 10.3 9.2 90 0.8 ESE 2 7 1 4 1017.4 1017.4 0.2
22/02:30am 11.5 9.3 9.3 86 1.1 NW 11 20 6 11 1017.3 1017.3 0.2
22/02:00am 11.4 8.8 9.2 86 1.1 WSW 13 19 7 10 1017.3 1017.3 0.2
22/01:30am 10.7 8.8 9.1 90 0.8 W 9 13 5 7 1017.3 1017.3 0.2
22/01:00am 10.9 9.0 9.1 89 0.9 W 9 13 5 7 1017.5 1017.5 0.2
22/12:30am 11.8 10.0 9.6 86 1.1 NNE 9 17 5 9 1017.5 1017.5 0.2
22/12:00am 11.6 10.4 9.6 87 1.0 NNW 6 11 3 6 1017.5 1017.5 0.2
 
Date/Time
EST
Temp
°C
App
Temp
°C
Dew
Point
°C
Rel
Hum
%
Delta-T
°C
Wind Press
QNH
hPa
Press
MSL
hPa
Rain since
9am
mm
Dir  Spd
km/h
Gust
km/h
Spd
kts
Gust
kts
21/11:30pm 11.9 9.3 9.5 85 1.2 WSW 13 19 7 10 1017.4 1017.4 0.2
21/11:00pm 11.8 9.7 9.6 86 1.1 W 11 15 6 8 1017.3 1017.3 0.2
21/10:30pm 12.1 10.7 9.7 85 1.2 W 7 11 4 6 1017.4 1017.4 0.2
21/10:00pm 12.5 10.7 9.5 82 1.5 WNW 9 15 5 8 1017.4 1017.4 0.2
21/09:30pm 11.8 10.5 10.0 89 0.9 WSW 7 9 4 5 1017.6 1017.6 0.2
21/09:00pm 12.3 12.0 10.0 86 1.2 W 2 7 1 4 1017.1 1017.1 0.2
21/08:30pm 12.6 11.4 10.3 86 1.2 WNW 7 11 4 6 1016.9 1016.9 0.2
21/08:00pm 12.9 12.4 10.6 86 1.2 WSW 4 9 2 5 1017.0 1017.0 0.2
21/07:30pm 13.5 11.6 10.4 81 1.6 N 11 15 6 8 1016.8 1016.8 0.2
21/07:00pm 13.3 11.8 10.4 82 1.5 NW 9 13 5 7 1016.7 1016.7 0.2
21/06:30pm 13.4 13.8 11.1 86 1.2 CALM 0 0 0 0 1016.4 1016.4 0.2
21/06:00pm 13.8 13.3 10.6 81 1.7 W 4 6 2 3 1016.3 1016.3 0.2
21/05:30pm 13.8 12.5 10.1 78 1.9 NW 7 11 4 6 1016.0 1016.0 0.2
21/05:00pm 13.8 12.7 10.1 78 1.9 NW 6 11 3 6 1015.8 1015.8 0.2
21/04:30pm 14.1 14.2 10.3 78 2.0 CALM 0 0 0 0 1015.8 1015.8 0.2
21/04:00pm 14.1 13.0 10.1 77 2.1 N 6 9 3 5 1015.7 1015.7 0.2
21/03:30pm 14.4 13.1 9.8 74 2.4 N 7 11 4 6 1015.4 1015.4 0.2
21/03:00pm 14.4 12.2 9.5 72 2.5 NNW 11 17 6 9 1015.3 1015.3 0.2
21/02:30pm 14.9 12.7 9.5 70 2.8 NNW 11 17 6 9 1015.2 1015.2 0.2
21/02:00pm 14.6 10.9 9.6 72 2.6 NNW 19 24 10 13 1015.1 1015.1 0.0
21/01:30pm 14.6 10.9 9.3 70 2.7 NNW 19 26 10 14 1015.0 1015.0 0.0
21/01:00pm 13.9 9.7 9.8 76 2.1 NNW 22 28 12 15 1015.3 1015.3 0.0
21/12:30pm 13.9 10.3 9.8 76 2.1 NNW 19 28 10 15 1015.6 1015.6 0.0
21/12:00pm 14.2 10.9 9.7 74 2.3 NNW 17 24 9 13 1016.1 1016.1 0.0
21/11:30am 14.7 11.9 10.1 74 2.4 NNW 15 19 8 10 1016.6 1016.6 0.0
21/11:00am 13.8 11.3 9.7 76 2.1 NNW 13 17 7 9 1017.0 1017.0 0.0
21/10:30am 13.0 10.6 9.9 81 1.6 NNW 13 19 7 10 1017.3 1017.3 0.0
21/10:00am 13.2 10.9 10.3 82 1.5 NNW 13 19 7 10 1017.1 1017.1 0.0
21/09:30am 11.7 10.1 10.1 90 0.8 NW 9 13 5 7 1017.2 1017.2 0.0
21/09:00am 10.7 9.3 9.7 93 0.5 N 7 9 4 5 1017.3 1017.3 5.2
21/08:30am 10.3 9.1 9.5 95 0.4 NW 6 7 3 4 1017.3 1017.3 5.2
21/08:00am 10.2 8.8 9.6 96 0.3 W 7 11 4 6 1017.2 1017.2 5.2
21/07:30am 10.1 8.9 9.7 97 0.2 NNW 6 9 3 5 1017.3 1017.3 5.2
21/07:00am 9.7 8.8 9.1 96 0.3 NW 4 9 2 5 1017.1 1017.1 5.2
21/06:30am 9.7 7.9 9.3 97 0.2 NW 9 11 5 6 1017.3 1017.3 5.2
21/06:00am 9.6 7.3 9.0 96 0.3 WSW 11 15 6 8 1017.3 1017.3 5.2
21/05:30am 10.4 9.6 9.6 95 0.4 NNW 4 11 2 6 1017.2 1017.2 5.2
21/05:00am 10.9 8.2 10.5 97 0.2 NW 15 20 8 11 1016.8 1016.8 5.2
21/04:30am 11.4 8.8 10.8 96 0.3 NW 15 22 8 12 1016.9 1016.9 5.2
21/04:00am 11.6 9.5 11.2 97 0.2 NW 13 17 7 9 1016.9 1016.9 5.2
21/03:30am 12.0 10.0 11.4 96 0.3 NW 13 19 7 10 1016.8 1016.8 5.2
21/03:00am 11.9 10.7 11.5 97 0.2 WNW 9 13 5 7 1017.1 1017.1 5.2
21/02:30am 12.0 8.9 11.6 97 0.2 NNW 19 24 10 13 1017.3 1017.3 5.2
21/02:00am 12.3 9.7 11.9 97 0.2 NNW 17 22 9 12 1017.5 1017.5 5.0
21/01:30am 12.7 10.9 12.1 96 0.3 N 13 17 7 9 1017.6 1017.6 5.0
21/01:00am 12.4 11.3 11.8 96 0.3 NW 9 13 5 7 1017.3 1017.3 5.0
21/12:30am 12.9 12.9 12.3 96 0.3 NNE 4 9 2 5 1017.2 1017.2 5.0
21/12:00am 13.1 13.1 12.5 96 0.3 SE 4 7 2 4 1017.4 1017.4 5.0
 
Date/Time
EST
Temp
°C
App
Temp
°C
Dew
Point
°C
Rel
Hum
%
Delta-T
°C
Wind Press
QNH
hPa
Press
MSL
hPa
Rain since
9am
mm
Dir  Spd
km/h
Gust
km/h
Spd
kts
Gust
kts
20/11:30pm 13.0 12.0 12.4 96 0.3 SW 9 11 5 6 1017.5 1017.5 5.0
20/11:00pm 13.1 11.8 12.4 95 0.4 WSW 11 13 6 7 1017.6 1017.6 5.0
20/10:30pm 13.0 12.4 12.4 96 0.3 SW 7 9 4 5 1017.8 1017.8 5.0
20/10:00pm 13.0 12.0 12.3 95 0.4 WSW 9 13 5 7 1018.2 1018.2 3.2
20/09:30pm 13.1 12.5 11.8 92 0.7 W 6 9 3 5 1018.6 1018.7 2.6
20/09:00pm 13.0 11.9 11.9 93 0.6 W 9 11 5 6 1018.8 1018.9 2.6
20/08:30pm 13.0 12.4 11.7 92 0.7 SSE 6 9 3 5 1019.0 1019.1 2.6
20/08:00pm 13.4 13.4 11.3 87 1.1 ENE 2 9 1 5 1019.1 1019.2 2.0
20/07:30pm 13.3 13.3 11.0 86 1.2 ESE 2 7 1 4 1019.3 1019.4 2.0
20/07:00pm 12.8 11.1 11.3 91 0.8 WSW 11 15 6 8 1019.4 1019.5 2.0
20/06:30pm 12.9 12.1 11.2 89 0.9 SW 6 9 3 5 1019.3 1019.4 1.8
20/06:00pm 13.3 13.2 10.8 85 1.3 SE 2 9 1 5 1019.6 1019.7 1.4
20/05:30pm 13.3 12.5 11.2 87 1.1 E 6 9 3 5 1019.7 1019.8 1.2
20/05:00pm 13.7 12.3 10.8 83 1.5 ENE 9 11 5 6 1019.8 1019.9 1.0
20/04:30pm 14.0 11.3 10.4 79 1.9 ENE 15 22 8 12 1019.9 1020.0 0.6
20/04:00pm 13.4 12.4 10.9 85 1.3 SW 7 11 4 6 1020.0 1020.1 0.4
20/03:30pm 13.5 13.8 10.8 84 1.4 CALM 0 6 0 3 1020.3 1020.4 0.4
20/03:00pm 13.6 12.1 10.5 81 1.6 ESE 9 13 5 7 1020.6 1020.7 0.2
20/02:30pm 14.6 11.6 9.1 69 2.8 ENE 15 22 8 12 1020.7 1020.8 0.0
20/02:00pm 14.6 12.3 8.9 68 2.9 ENE 11 17 6 9 1021.0 1021.1 0.0
20/01:30pm 14.7 11.8 8.3 65 3.2 ENE 13 19 7 10 1021.3 1021.4 0.0

Other Formats:

Comma delimited format used in spreadsheet applications
http://www.bom.gov.au/fwo/IDT60801/IDT60801.94970.axf

JavaScript Object Notation format (JSON) in row-major order
http://www.bom.gov.au/fwo/IDT60801/IDT60801.94970.json